createdAt,value
2018-03-28T00:00:23.109Z,39.20
2018-03-28T00:02:49.548Z,39.20
2018-03-28T00:05:15.759Z,39.10
2018-03-28T00:07:41.941Z,39.20
2018-03-28T00:10:08.177Z,39.10
2018-03-28T00:12:35.530Z,39.20
2018-03-28T00:15:01.691Z,39.20
2018-03-28T00:17:28.143Z,39.10
2018-03-28T00:19:54.472Z,39.20
2018-03-28T00:22:20.681Z,39.20
2018-03-28T00:24:47.031Z,39.10
2018-03-28T00:27:13.213Z,39.20
2018-03-28T00:29:46.098Z,39.10
2018-03-28T00:32:12.679Z,39.10
2018-03-28T00:34:38.897Z,39.20
2018-03-28T00:37:05.840Z,39.30
2018-03-28T00:39:32.308Z,39.20
2018-03-28T00:41:58.639Z,39.20
2018-03-28T00:44:24.876Z,39.20
2018-03-28T00:46:51.163Z,39.20
2018-03-28T00:49:22.185Z,39.20
2018-03-28T00:51:48.439Z,39.20
2018-03-28T00:54:14.823Z,39.30
2018-03-28T00:56:41.177Z,39.30
2018-03-28T00:59:07.518Z,39.30
2018-03-28T01:01:33.882Z,39.30
2018-03-28T01:04:00.182Z,39.40
2018-03-28T01:06:26.423Z,39.40
2018-03-28T01:08:52.638Z,39.40
2018-03-28T01:11:19.090Z,39.40
2018-03-28T01:13:45.305Z,39.40
2018-03-28T01:16:11.684Z,39.40
2018-03-28T01:18:38.690Z,39.50
2018-03-28T01:21:05.063Z,39.50
2018-03-28T01:23:32.110Z,39.80
2018-03-28T01:25:58.612Z,39.50
2018-03-28T01:28:24.828Z,39.60
2018-03-28T01:30:51.003Z,39.60
2018-03-28T01:33:17.174Z,39.60
2018-03-28T01:35:43.414Z,40.30
2018-03-28T01:38:09.938Z,39.60
2018-03-28T01:40:39.656Z,39.60
2018-03-28T01:43:06.011Z,39.60
2018-03-28T01:45:32.340Z,39.60
2018-03-28T01:47:58.706Z,39.70
2018-03-28T01:50:24.995Z,39.60
2018-03-28T01:52:51.357Z,39.70
2018-03-28T01:57:51.445Z,40.40
2018-03-28T02:00:17.666Z,39.70
2018-03-28T02:02:44.095Z,39.70
2018-03-28T02:05:10.346Z,39.80
2018-03-28T02:07:36.791Z,39.80
2018-03-28T02:10:03.098Z,39.80
2018-03-28T02:12:29.621Z,39.90
2018-03-28T02:14:56.058Z,39.80
2018-03-28T02:17:22.539Z,39.90
2018-03-28T02:19:48.830Z,39.80
2018-03-28T02:22:15.289Z,40.00
2018-03-28T02:24:42.353Z,40.00
2018-03-28T02:27:08.642Z,39.90
2018-03-28T02:29:34.870Z,40.00
2018-03-28T02:32:01.032Z,40.10
2018-03-28T02:34:27.192Z,40.10
2018-03-28T02:36:53.740Z,40.20
2018-03-28T02:39:20.220Z,40.10
2018-03-28T02:41:46.428Z,40.20
2018-03-28T02:44:12.645Z,40.30
2018-03-28T02:46:38.974Z,40.30
2018-03-28T02:49:05.234Z,40.40
2018-03-28T02:51:31.545Z,40.40
2018-03-28T02:53:57.871Z,40.40
2018-03-28T02:56:24.162Z,40.50
2018-03-28T02:58:50.444Z,40.40
2018-03-28T03:01:16.818Z,40.50
2018-03-28T03:03:43.091Z,40.40
2018-03-28T03:06:09.492Z,40.50
2018-03-28T03:08:35.855Z,40.60
2018-03-28T03:11:02.238Z,40.60
2018-03-28T03:13:28.669Z,41.30
2018-03-28T03:15:55.090Z,40.60
2018-03-28T03:18:21.389Z,40.70
2018-03-28T03:20:47.923Z,40.60
2018-03-28T03:23:14.146Z,40.70
2018-03-28T03:25:40.525Z,40.70
2018-03-28T03:28:06.750Z,40.80
2018-03-28T03:30:32.973Z,40.90
2018-03-28T03:33:00.234Z,40.90
2018-03-28T03:35:26.517Z,40.90
2018-03-28T03:37:52.930Z,40.90
2018-03-28T03:40:19.177Z,40.90
2018-03-28T03:42:45.341Z,40.90
2018-03-28T03:45:11.921Z,41.00
2018-03-28T03:47:38.168Z,41.10
2018-03-28T03:50:04.378Z,41.10
2018-03-28T03:52:30.625Z,41.10
2018-03-28T03:54:57.097Z,41.60
2018-03-28T03:57:23.421Z,41.20
2018-03-28T03:59:49.817Z,41.20
2018-03-28T04:02:15.977Z,41.20
2018-03-28T04:04:42.184Z,41.20
2018-03-28T04:07:09.429Z,41.40
2018-03-28T04:09:35.660Z,41.30
2018-03-28T04:12:02.619Z,41.90
2018-03-28T04:14:28.941Z,41.40
2018-03-28T04:16:55.988Z,41.40
2018-03-28T04:19:23.034Z,41.40
2018-03-28T04:21:53.798Z,41.50
2018-03-28T04:24:20.221Z,42.20
2018-03-28T04:26:46.400Z,41.50
2018-03-28T04:29:12.876Z,41.60
2018-03-28T04:31:39.099Z,41.60
2018-03-28T04:34:05.264Z,41.60
2018-03-28T04:36:31.848Z,41.60
2018-03-28T04:38:58.034Z,41.70
2018-03-28T04:41:24.308Z,41.70
2018-03-28T04:43:50.498Z,41.60
2018-03-28T04:46:16.765Z,41.70
2018-03-28T04:48:42.995Z,41.70
2018-03-28T04:51:09.270Z,41.70
2018-03-28T04:53:35.550Z,41.80
2018-03-28T04:56:02.494Z,41.80
2018-03-28T04:58:28.641Z,41.80
2018-03-28T05:00:54.849Z,41.80
2018-03-28T05:03:21.323Z,41.80
2018-03-28T05:05:47.526Z,41.80
2018-03-28T05:08:13.998Z,41.80
2018-03-28T05:10:40.293Z,41.80
2018-03-28T05:13:06.502Z,41.80
2018-03-28T05:15:32.725Z,41.90
2018-03-28T05:17:58.887Z,41.80
2018-03-28T05:20:25.095Z,41.90
2018-03-28T05:22:51.313Z,42.00
2018-03-28T05:25:22.469Z,42.10
2018-03-28T05:27:48.902Z,42.10
2018-03-28T05:30:15.393Z,42.10
2018-03-28T05:32:41.872Z,42.20
2018-03-28T05:35:08.352Z,42.90
2018-03-28T05:37:34.519Z,42.20
2018-03-28T05:45:04.879Z,42.40
2018-03-28T05:47:31.407Z,42.30
2018-03-28T05:49:57.622Z,42.30
2018-03-28T05:52:24.006Z,42.50
2018-03-28T05:54:50.298Z,42.50
2018-03-28T05:57:16.723Z,42.50
2018-03-28T05:59:43.003Z,42.40
2018-03-28T06:02:09.302Z,42.40
2018-03-28T06:04:35.839Z,42.10
2018-03-28T06:07:01.989Z,42.50
2018-03-28T06:09:28.241Z,42.50
2018-03-28T06:11:55.506Z,42.50
2018-03-28T06:14:21.774Z,42.50
2018-03-28T06:16:47.990Z,42.50
2018-03-28T06:19:14.225Z,42.60
2018-03-28T06:21:40.850Z,42.60
2018-03-28T06:24:07.195Z,42.80
2018-03-28T06:26:33.396Z,42.80
2018-03-28T06:28:59.939Z,42.90
2018-03-28T06:31:26.362Z,42.90
2018-03-28T06:33:52.619Z,42.80
2018-03-28T06:36:19.026Z,42.90
2018-03-28T06:38:45.336Z,42.90
2018-03-28T06:41:11.514Z,43.00
2018-03-28T06:43:40.368Z,43.00
2018-03-28T06:46:06.628Z,42.90
2018-03-28T06:48:32.856Z,42.80
2018-03-28T06:50:59.185Z,42.90
2018-03-28T06:53:25.416Z,42.90
2018-03-28T06:55:51.649Z,42.90
2018-03-28T06:58:17.879Z,43.70
2018-03-28T07:00:44.208Z,42.90
2018-03-28T07:03:10.367Z,43.00
2018-03-28T07:05:37.657Z,43.00
2018-03-28T07:08:04.065Z,42.90
2018-03-28T07:10:30.250Z,43.10
2018-03-28T07:12:56.730Z,43.10
2018-03-28T07:15:22.904Z,43.10
2018-03-28T07:17:49.241Z,43.10
2018-03-28T07:20:15.456Z,43.10
2018-03-28T07:22:41.834Z,43.10
2018-03-28T07:25:08.123Z,43.10
2018-03-28T07:27:34.347Z,43.20
2018-03-28T07:30:00.561Z,43.20
2018-03-28T07:32:26.956Z,43.10
2018-03-28T07:34:53.235Z,43.10
2018-03-28T07:37:19.899Z,43.10
2018-03-28T07:39:46.101Z,43.20
2018-03-28T07:42:12.471Z,43.20
2018-03-28T07:44:38.769Z,43.10
2018-03-28T07:47:05.136Z,43.20
2018-03-28T07:49:31.334Z,43.20
2018-03-28T07:51:58.256Z,43.10
2018-03-28T07:54:24.426Z,43.10
2018-03-28T07:56:50.737Z,43.10
2018-03-28T07:59:16.965Z,43.10
2018-03-28T08:01:43.214Z,43.30
2018-03-28T08:04:09.363Z,43.10
2018-03-28T08:06:35.612Z,43.20
2018-03-28T08:09:02.014Z,43.20
2018-03-28T08:11:28.212Z,43.30
2018-03-28T08:13:55.259Z,43.30
2018-03-28T08:16:21.622Z,43.20
2018-03-28T08:18:47.866Z,43.30
2018-03-28T08:21:14.140Z,43.20
2018-03-28T08:23:41.088Z,43.40
2018-03-28T08:26:07.509Z,43.30
2018-03-28T08:28:34.078Z,43.30
2018-03-28T08:31:00.287Z,43.40
2018-03-28T08:33:26.739Z,43.40
2018-03-28T08:35:53.051Z,43.50
2018-03-28T08:38:19.415Z,43.60
2018-03-28T08:40:45.608Z,43.60
2018-03-28T08:43:11.834Z,43.60
2018-03-28T08:45:38.063Z,43.60
2018-03-28T08:48:04.544Z,43.50
2018-03-28T08:50:30.831Z,43.60
2018-03-28T08:52:57.074Z,43.60
2018-03-28T08:55:23.420Z,43.50
2018-03-28T08:57:49.696Z,43.60
2018-03-28T09:00:16.251Z,43.60
2018-03-28T09:02:42.411Z,43.50
2018-03-28T09:05:08.630Z,43.60
2018-03-28T09:07:34.795Z,43.50
2018-03-28T09:10:01.074Z,43.50
2018-03-28T09:12:27.290Z,43.60
2018-03-28T09:14:53.864Z,43.50
2018-03-28T09:17:20.067Z,43.70
2018-03-28T09:19:46.487Z,43.80
2018-03-28T09:24:46.514Z,43.80
2018-03-28T09:27:12.743Z,43.70
2018-03-28T09:29:39.188Z,44.40
2018-03-28T09:32:05.366Z,43.80
2018-03-28T09:34:31.641Z,43.80
2018-03-28T09:36:57.813Z,43.80
2018-03-28T09:39:24.115Z,43.80
2018-03-28T09:41:50.381Z,43.90
2018-03-28T09:44:16.558Z,43.90
2018-03-28T09:46:43.022Z,43.80
2018-03-28T09:49:09.311Z,43.80
2018-03-28T09:51:35.543Z,44.00
2018-03-28T09:54:02.067Z,43.90
2018-03-28T09:56:28.301Z,43.90
2018-03-28T09:58:54.460Z,43.90
2018-03-28T10:01:20.770Z,43.90
2018-03-28T10:03:46.995Z,44.00
2018-03-28T10:06:13.228Z,44.00
2018-03-28T10:08:39.549Z,44.10
2018-03-28T10:11:06.593Z,44.60
2018-03-28T10:13:32.821Z,43.90
2018-03-28T10:15:58.972Z,43.90
2018-03-28T10:18:25.146Z,43.90
2018-03-28T10:20:51.411Z,43.90
2018-03-28T10:23:17.682Z,43.90
2018-03-28T10:25:44.081Z,43.90
2018-03-28T10:28:10.472Z,43.90
2018-03-28T10:30:36.883Z,43.90
2018-03-28T10:33:03.799Z,43.90
2018-03-28T10:35:30.112Z,43.90
2018-03-28T10:37:56.345Z,43.90
2018-03-28T10:40:22.504Z,43.90
2018-03-28T10:42:48.700Z,44.00
2018-03-28T10:45:15.049Z,43.90
2018-03-28T10:47:41.292Z,44.00
2018-03-28T10:50:08.339Z,44.00
2018-03-28T10:55:06.804Z,43.90
2018-03-28T10:57:32.973Z,44.00
2018-03-28T10:59:59.363Z,44.00
2018-03-28T11:02:25.591Z,44.00
2018-03-28T11:04:51.816Z,44.00
2018-03-28T11:07:18.090Z,43.90
2018-03-28T11:09:44.294Z,43.90
2018-03-28T11:12:10.663Z,43.90
2018-03-28T11:14:36.925Z,43.90
2018-03-28T11:17:03.449Z,43.90
2018-03-28T11:19:29.690Z,43.90
2018-03-28T11:21:55.924Z,43.90
2018-03-28T11:24:22.108Z,43.90
2018-03-28T11:26:48.442Z,43.90
2018-03-28T11:29:14.602Z,43.90
2018-03-28T11:31:40.975Z,43.80
2018-03-28T11:36:38.830Z,43.90
2018-03-28T11:39:05.237Z,43.90
2018-03-28T11:41:31.649Z,43.80
2018-03-28T11:43:57.823Z,43.90
2018-03-28T11:46:24.760Z,43.80
2018-03-28T11:48:50.990Z,43.80
2018-03-28T11:51:17.346Z,43.80
2018-03-28T11:53:43.723Z,43.80
2018-03-28T11:56:10.698Z,43.90
2018-03-28T11:58:37.111Z,43.90
2018-03-28T12:01:04.916Z,43.90
2018-03-28T12:03:31.064Z,43.80
2018-03-28T12:05:58.622Z,43.80
2018-03-28T12:08:24.854Z,43.80
2018-03-28T12:10:51.133Z,43.80
2018-03-28T12:13:17.489Z,43.90
2018-03-28T12:15:43.781Z,43.80
2018-03-28T12:18:10.049Z,43.80
2018-03-28T12:20:36.373Z,43.80
2018-03-28T12:23:02.584Z,43.80
2018-03-28T12:25:29.681Z,44.50
2018-03-28T12:27:55.967Z,43.80
2018-03-28T12:30:22.240Z,43.80
2018-03-28T12:32:48.561Z,43.90
2018-03-28T12:35:14.814Z,43.80
2018-03-28T12:37:41.187Z,44.00
2018-03-28T12:40:07.524Z,43.90
2018-03-28T12:42:33.701Z,43.90
2018-03-28T12:44:59.989Z,44.00
2018-03-28T12:47:26.401Z,44.00
2018-03-28T12:49:52.683Z,44.00
2018-03-28T12:52:19.349Z,44.00
2018-03-28T12:54:45.634Z,43.90
2018-03-28T12:57:12.050Z,44.00
2018-03-28T12:59:38.722Z,43.90
2018-03-28T13:02:05.008Z,43.90
2018-03-28T13:04:31.330Z,44.00
2018-03-28T13:06:57.837Z,43.90
2018-03-28T13:09:25.010Z,43.90
2018-03-28T13:11:56.161Z,44.00
2018-03-28T13:16:53.773Z,43.90
2018-03-28T13:19:20.014Z,43.90
2018-03-28T13:21:46.193Z,44.00
2018-03-28T13:24:12.639Z,43.90
2018-03-28T13:26:38.790Z,43.90
2018-03-28T13:29:04.998Z,43.90
2018-03-28T13:31:31.217Z,44.00
2018-03-28T13:33:57.634Z,43.90
2018-03-28T13:36:23.974Z,43.90
2018-03-28T13:38:50.206Z,43.90
2018-03-28T13:41:16.436Z,43.90
2018-03-28T13:43:42.765Z,44.00
2018-03-28T13:46:09.315Z,43.80
2018-03-28T13:48:35.530Z,43.70
2018-03-28T13:51:04.633Z,44.10
2018-03-28T13:53:30.790Z,44.00
2018-03-28T13:55:56.946Z,44.20
2018-03-28T13:58:23.254Z,44.70
2018-03-28T14:00:50.248Z,44.30
2018-03-28T14:03:16.489Z,44.30
2018-03-28T14:05:43.005Z,44.30
2018-03-28T14:08:10.469Z,45.00
2018-03-28T14:10:36.705Z,44.30
2018-03-28T14:13:02.935Z,44.20
2018-03-28T14:15:29.322Z,44.20
2018-03-28T14:17:55.594Z,44.20
2018-03-28T14:20:21.981Z,44.10
2018-03-28T14:22:48.256Z,44.10
2018-03-28T14:25:14.683Z,44.20
2018-03-28T14:27:40.942Z,44.00
2018-03-28T14:30:07.094Z,44.10
2018-03-28T14:32:33.373Z,44.20
2018-03-28T14:34:59.538Z,44.10
2018-03-28T14:37:28.890Z,44.10
2018-03-28T14:39:55.136Z,44.10
2018-03-28T14:42:21.373Z,44.10
2018-03-28T14:44:47.744Z,43.90
2018-03-28T14:47:14.058Z,44.20
2018-03-28T14:49:40.281Z,44.20
2018-03-28T14:52:06.567Z,44.20
2018-03-28T14:54:32.810Z,44.20
2018-03-28T14:56:59.088Z,44.10
2018-03-28T14:59:25.514Z,44.10
2018-03-28T15:01:51.794Z,44.00
2018-03-28T15:04:18.023Z,44.10
2018-03-28T15:06:44.173Z,44.30
2018-03-28T15:09:11.433Z,44.10
2018-03-28T15:11:37.660Z,44.10
2018-03-28T15:14:04.937Z,44.00
2018-03-28T15:16:31.218Z,44.00
2018-03-28T15:18:57.461Z,44.10
2018-03-28T15:21:23.809Z,44.30
2018-03-28T15:23:52.703Z,44.30
2018-03-28T15:26:18.904Z,44.20
2018-03-28T15:28:45.373Z,44.00
2018-03-28T15:33:43.827Z,44.30
2018-03-28T15:36:10.190Z,44.10
2018-03-28T15:38:36.496Z,44.50
2018-03-28T15:41:02.647Z,44.40
2018-03-28T15:43:28.844Z,44.20
2018-03-28T15:45:55.890Z,44.30
2018-03-28T15:48:22.829Z,44.50
2018-03-28T15:50:49.897Z,44.30
2018-03-28T15:53:16.105Z,44.30
2018-03-28T15:55:43.108Z,44.50
2018-03-28T15:58:09.433Z,44.50
2018-03-28T16:00:35.743Z,44.50
2018-03-28T16:03:01.937Z,44.50
2018-03-28T16:05:28.994Z,44.50
2018-03-28T16:07:55.938Z,44.50
2018-03-28T16:10:22.282Z,44.50
2018-03-28T16:12:52.802Z,44.40
2018-03-28T16:15:19.058Z,44.60
2018-03-28T16:17:45.394Z,44.50
2018-03-28T16:20:11.589Z,44.60
2018-03-28T16:22:37.814Z,44.40
2018-03-28T16:25:03.986Z,44.30
2018-03-28T16:27:34.737Z,44.40
2018-03-28T16:30:00.897Z,44.50
2018-03-28T16:32:27.329Z,44.30
2018-03-28T16:34:53.691Z,44.50
2018-03-28T16:37:19.893Z,44.50
2018-03-28T16:39:46.430Z,44.40
2018-03-28T16:42:12.882Z,44.40
2018-03-28T16:44:39.201Z,44.30
2018-03-28T16:47:05.722Z,44.30
2018-03-28T16:49:32.148Z,44.40
2018-03-28T16:51:58.525Z,44.30
2018-03-28T16:54:24.818Z,44.50
2018-03-28T16:56:50.981Z,44.50
2018-03-28T17:01:49.146Z,44.50
2018-03-28T17:04:15.579Z,44.40
2018-03-28T17:06:41.953Z,44.50
2018-03-28T17:09:08.138Z,44.50
2018-03-28T17:11:34.984Z,44.70
2018-03-28T17:14:01.232Z,44.50
2018-03-28T17:16:27.828Z,44.40
2018-03-28T17:18:54.069Z,44.50
2018-03-28T17:21:20.222Z,44.60
2018-03-28T17:23:46.418Z,44.40
2018-03-28T17:26:13.785Z,44.60
2018-03-28T17:28:40.104Z,44.50
2018-03-28T17:31:06.329Z,44.60
2018-03-28T17:33:32.559Z,44.70
2018-03-28T17:35:59.075Z,44.80
2018-03-28T17:38:25.504Z,44.90
2018-03-28T17:40:51.974Z,44.90
2018-03-28T17:43:18.203Z,44.80
2018-03-28T17:45:44.610Z,44.60
2018-03-28T17:48:11.026Z,44.80
2018-03-28T17:50:37.290Z,45.10
2018-03-28T17:53:03.733Z,44.90
2018-03-28T17:55:30.150Z,45.00
2018-03-28T17:57:56.384Z,44.70
2018-03-28T18:00:22.543Z,44.60
2018-03-28T18:02:49.469Z,45.50
2018-03-28T18:05:15.734Z,44.80
2018-03-28T18:07:42.274Z,44.70
2018-03-28T18:10:08.764Z,44.80
2018-03-28T18:12:35.144Z,45.00
2018-03-28T18:15:01.422Z,44.90
2018-03-28T18:17:27.830Z,44.70
2018-03-28T18:19:54.078Z,44.80
2018-03-28T18:22:20.465Z,44.90
2018-03-28T18:24:46.633Z,44.80
2018-03-28T18:27:13.016Z,44.80
2018-03-28T18:29:39.311Z,45.00
2018-03-28T18:32:05.526Z,45.00
2018-03-28T18:34:31.872Z,45.00
2018-03-28T18:36:58.092Z,44.90
2018-03-28T18:39:24.457Z,45.10
2018-03-28T18:41:50.747Z,45.20
2018-03-28T18:44:17.130Z,45.10
2018-03-28T18:46:43.325Z,45.30
2018-03-28T18:49:10.398Z,45.30
2018-03-28T18:51:36.711Z,45.20
2018-03-28T18:54:03.009Z,45.30
2018-03-28T18:56:29.239Z,45.60
2018-03-28T18:58:55.464Z,45.50
2018-03-28T19:01:21.802Z,45.60
2018-03-28T19:03:48.158Z,45.60
2018-03-28T19:06:14.373Z,45.70
2018-03-28T19:08:41.306Z,45.60
2018-03-28T19:11:07.714Z,45.60
2018-03-28T19:13:34.195Z,45.80
2018-03-28T19:16:00.606Z,45.70
2018-03-28T19:18:26.972Z,45.90
2018-03-28T19:20:53.268Z,46.00
2018-03-28T19:23:19.488Z,45.80
2018-03-28T19:25:45.725Z,46.10
2018-03-28T19:28:12.079Z,46.40
2018-03-28T19:30:40.844Z,46.60
2018-03-28T19:33:07.249Z,46.50
2018-03-28T19:35:33.717Z,46.40
2018-03-28T19:38:00.053Z,46.60
2018-03-28T19:40:26.262Z,46.50
2018-03-28T19:42:53.216Z,46.50
2018-03-28T19:45:19.558Z,46.50
2018-03-28T19:47:45.766Z,46.40
2018-03-28T19:50:12.100Z,46.30
2018-03-28T19:52:38.532Z,46.20
2018-03-28T19:55:04.875Z,46.20
2018-03-28T19:57:31.090Z,46.10
2018-03-28T19:59:58.022Z,45.90
2018-03-28T20:02:25.802Z,45.80
2018-03-28T20:04:52.244Z,45.80
2018-03-28T20:07:18.467Z,45.90
2018-03-28T20:09:44.797Z,45.80
2018-03-28T20:12:16.875Z,45.60
2018-03-28T20:14:46.878Z,45.60
2018-03-28T20:17:13.107Z,45.60
2018-03-28T20:19:39.329Z,45.50
2018-03-28T20:22:05.570Z,45.40
2018-03-28T20:24:31.741Z,45.30
2018-03-28T20:26:58.123Z,45.20
2018-03-28T20:29:28.863Z,45.10
2018-03-28T20:31:55.104Z,45.00
2018-03-28T20:34:21.319Z,45.00
2018-03-28T20:36:47.542Z,45.00
2018-03-28T20:39:13.925Z,45.60
2018-03-28T20:41:40.080Z,44.90
2018-03-28T20:44:07.654Z,44.70
2018-03-28T20:46:33.893Z,44.70
2018-03-28T20:49:00.286Z,44.70
2018-03-28T20:51:27.261Z,44.50
2018-03-28T20:53:53.495Z,44.50
2018-03-28T20:56:20.018Z,44.60
2018-03-28T20:58:46.445Z,44.50
2018-03-28T21:01:12.691Z,44.50
2018-03-28T21:03:39.016Z,44.50
2018-03-28T21:06:05.539Z,44.30
2018-03-28T21:08:31.967Z,44.30
2018-03-28T21:10:58.282Z,44.20
2018-03-28T21:13:24.511Z,44.30
2018-03-28T21:15:51.609Z,43.90
2018-03-28T21:18:18.129Z,43.80
2018-03-28T21:20:44.599Z,43.80
2018-03-28T21:23:10.859Z,43.50
2018-03-28T21:25:37.023Z,43.50
2018-03-28T21:28:03.239Z,43.50
2018-03-28T21:30:29.584Z,43.40
2018-03-28T21:32:55.918Z,43.30
2018-03-28T21:35:22.665Z,43.40
2018-03-28T21:37:49.085Z,43.30
2018-03-28T21:40:15.578Z,43.30
2018-03-28T21:42:41.889Z,43.10
2018-03-28T21:45:08.078Z,43.10
2018-03-28T21:47:34.389Z,42.90
2018-03-28T21:50:00.995Z,42.80
2018-03-28T21:52:27.269Z,42.70
2018-03-28T21:54:53.766Z,42.70
2018-03-28T21:57:23.353Z,42.60
2018-03-28T21:59:49.850Z,42.40
2018-03-28T22:02:16.123Z,42.50
2018-03-28T22:04:46.870Z,42.40
2018-03-28T22:07:13.142Z,42.30
2018-03-28T22:09:39.372Z,42.20
2018-03-28T22:12:05.601Z,42.90
2018-03-28T22:14:31.761Z,42.30
2018-03-28T22:16:58.777Z,42.80
2018-03-28T22:19:25.108Z,42.10
2018-03-28T22:21:52.921Z,42.20
2018-03-28T22:24:19.557Z,42.00
2018-03-28T22:26:45.735Z,41.80
2018-03-28T22:29:12.066Z,41.80
2018-03-28T22:31:38.246Z,41.70
2018-03-28T22:34:04.414Z,41.60
2018-03-28T22:36:30.661Z,41.80
2018-03-28T22:38:57.638Z,41.60
2018-03-28T22:41:24.212Z,41.60
2018-03-28T22:43:50.610Z,41.60
2018-03-28T22:46:16.793Z,41.40
2018-03-28T22:48:43.737Z,42.10
2018-03-28T22:51:10.996Z,41.40
2018-03-28T22:53:37.350Z,41.30
2018-03-28T22:56:03.554Z,41.30
2018-03-28T22:58:30.533Z,41.20
2018-03-28T23:00:56.726Z,41.20
2018-03-28T23:03:23.067Z,41.10
2018-03-28T23:05:49.714Z,41.10
2018-03-28T23:08:15.917Z,41.10
2018-03-28T23:10:42.306Z,41.00
2018-03-28T23:13:08.567Z,41.00
2018-03-28T23:15:35.520Z,41.50
2018-03-28T23:18:01.898Z,40.80
2018-03-28T23:20:28.305Z,40.80
2018-03-28T23:22:54.629Z,40.90
2018-03-28T23:25:20.848Z,40.70
2018-03-28T23:27:47.184Z,40.70
2018-03-28T23:30:13.386Z,40.70
2018-03-28T23:32:39.749Z,40.70
2018-03-28T23:35:06.073Z,40.70
2018-03-28T23:37:32.291Z,40.60
2018-03-28T23:39:59.402Z,40.70
2018-03-28T23:42:25.674Z,40.60
2018-03-28T23:44:51.830Z,40.50
2018-03-28T23:47:18.085Z,40.50
2018-03-28T23:49:44.357Z,40.50
2018-03-28T23:52:10.629Z,40.60
2018-03-28T23:54:37.735Z,40.40
2018-03-28T23:57:04.170Z,40.40
2018-03-28T23:59:30.638Z,40.50
